sensor_id;sensor_type;location;lat;lon;timestamp;noise_LAeq;noise_LA_min;noise_LA_max;noise_LA01;noise_LA95
66747;Laerm;53658;50.742;10.864;2023-04-01T00:00:31;39.70;36.91;46.66;;
66747;Laerm;53658;50.742;10.864;2023-04-01T00:02:57;39.88;37.32;46.82;;
66747;Laerm;53658;50.742;10.864;2023-04-01T00:05:23;39.92;37.32;45.30;;
66747;Laerm;53658;50.742;10.864;2023-04-01T00:07:50;39.72;36.45;44.80;;
66747;Laerm;53658;50.742;10.864;2023-04-01T00:10:16;39.76;37.12;44.19;;
66747;Laerm;53658;50.742;10.864;2023-04-01T00:12:42;39.68;37.12;42.71;;
66747;Laerm;53658;50.742;10.864;2023-04-01T00:15:10;39.54;36.20;42.88;;
66747;Laerm;53658;50.742;10.864;2023-04-01T00:17:37;39.81;37.12;44.54;;
66747;Laerm;53658;50.742;10.864;2023-04-01T00:20:05;39.71;35.94;49.88;;
66747;Laerm;53658;50.742;10.864;2023-04-01T00:22:32;39.68;36.45;46.87;;
66747;Laerm;53658;50.742;10.864;2023-04-01T00:24:59;39.48;36.20;42.35;;
66747;Laerm;53658;50.742;10.864;2023-04-01T00:27:25;39.52;36.69;45.33;;
66747;Laerm;53658;50.742;10.864;2023-04-01T00:29:51;39.89;36.77;51.69;;
66747;Laerm;53658;50.742;10.864;2023-04-01T00:32:17;39.60;36.45;44.76;;
66747;Laerm;53658;50.742;10.864;2023-04-01T00:34:43;39.75;36.34;45.04;;
66747;Laerm;53658;50.742;10.864;2023-04-01T00:37:10;39.79;36.45;47.50;;
66747;Laerm;53658;50.742;10.864;2023-04-01T00:39:37;39.50;35.36;48.37;;
66747;Laerm;53658;50.742;10.864;2023-04-01T00:42:03;39.49;36.20;45.01;;
66747;Laerm;53658;50.742;10.864;2023-04-01T00:44:32;39.50;35.36;50.65;;
66747;Laerm;53658;50.742;10.864;2023-04-01T00:47:00;39.47;36.20;46.30;;
66747;Laerm;53658;50.742;10.864;2023-04-01T00:49:39;40.94;35.94;71.59;;
66747;Laerm;53658;50.742;10.864;2023-04-01T00:52:08;39.63;36.45;56.62;;
66747;Laerm;53658;50.742;10.864;2023-04-01T00:54:38;39.86;35.04;53.41;;
66747;Laerm;53658;50.742;10.864;2023-04-01T00:57:12;39.39;36.20;50.17;;
66747;Laerm;53658;50.742;10.864;2023-04-01T00:59:46;39.28;35.04;42.47;;
66747;Laerm;53658;50.742;10.864;2023-04-01T01:02:16;39.45;36.20;43.58;;
66747;Laerm;53658;50.742;10.864;2023-04-01T01:04:41;39.43;36.20;43.44;;
66747;Laerm;53658;50.742;10.864;2023-04-01T01:12:34;39.49;36.20;49.43;;
66747;Laerm;53658;50.742;10.864;2023-04-01T01:15:34;39.67;35.94;47.59;;
66747;Laerm;53658;50.742;10.864;2023-04-01T01:18:33;39.43;35.94;52.15;;
66747;Laerm;53658;50.742;10.864;2023-04-01T01:21:42;39.65;35.94;53.24;;
66747;Laerm;53658;50.742;10.864;2023-04-01T01:24:20;39.44;36.20;43.29;;
66747;Laerm;53658;50.742;10.864;2023-04-01T01:27:06;40.49;34.31;70.62;;
66747;Laerm;53658;50.742;10.864;2023-04-01T01:29:40;39.59;36.20;48.90;;
66747;Laerm;53658;50.742;10.864;2023-04-01T01:37:45;39.35;35.36;45.36;;
66747;Laerm;53658;50.742;10.864;2023-04-01T01:40:15;39.25;35.66;42.98;;
66747;Laerm;53658;50.742;10.864;2023-04-01T01:42:48;39.26;35.36;44.80;;
66747;Laerm;53658;50.742;10.864;2023-04-01T01:45:20;39.24;35.94;43.24;;
66747;Laerm;53658;50.742;10.864;2023-04-01T01:47:49;39.54;35.94;44.90;;
66747;Laerm;53658;50.742;10.864;2023-04-01T01:50:17;39.38;35.94;43.99;;
66747;Laerm;53658;50.742;10.864;2023-04-01T01:52:45;39.34;36.45;47.48;;
66747;Laerm;53658;50.742;10.864;2023-04-01T01:55:28;39.41;35.94;44.76;;
66747;Laerm;53658;50.742;10.864;2023-04-01T01:58:01;39.43;35.66;48.03;;
66747;Laerm;53658;50.742;10.864;2023-04-01T02:00:28;39.24;35.66;49.59;;
66747;Laerm;53658;50.742;10.864;2023-04-01T02:02:57;39.48;36.20;46.35;;
66747;Laerm;53658;50.742;10.864;2023-04-01T02:05:26;39.35;36.10;46.23;;
66747;Laerm;53658;50.742;10.864;2023-04-01T02:08:08;39.27;35.36;44.23;;
66747;Laerm;53658;50.742;10.864;2023-04-01T02:10:40;39.22;35.36;43.86;;
66747;Laerm;53658;50.742;10.864;2023-04-01T02:13:19;39.37;36.69;47.76;;
66747;Laerm;53658;50.742;10.864;2023-04-01T02:15:50;39.33;36.91;44.90;;
66747;Laerm;53658;50.742;10.864;2023-04-01T02:18:22;39.61;35.94;47.98;;
66747;Laerm;53658;50.742;10.864;2023-04-01T02:20:49;39.34;36.45;42.98;;
66747;Laerm;53658;50.742;10.864;2023-04-01T02:23:15;39.46;35.94;43.72;;
66747;Laerm;53658;50.742;10.864;2023-04-01T02:25:43;39.44;36.20;42.03;;
66747;Laerm;53658;50.742;10.864;2023-04-01T02:28:13;39.36;36.69;42.29;;
66747;Laerm;53658;50.742;10.864;2023-04-01T02:30:44;39.33;36.69;41.68;;
66747;Laerm;53658;50.742;10.864;2023-04-01T02:33:11;39.46;36.20;45.75;;
66747;Laerm;53658;50.742;10.864;2023-04-01T02:35:37;39.43;36.20;44.35;;
66747;Laerm;53658;50.742;10.864;2023-04-01T02:38:05;39.48;36.69;43.54;;
66747;Laerm;53658;50.742;10.864;2023-04-01T02:40:42;39.50;36.69;43.09;;
66747;Laerm;53658;50.742;10.864;2023-04-01T02:43:09;39.45;36.45;43.58;;
66747;Laerm;53658;50.742;10.864;2023-04-01T02:45:35;39.51;36.20;46.05;;
66747;Laerm;53658;50.742;10.864;2023-04-01T02:48:02;39.55;36.69;50.42;;
66747;Laerm;53658;50.742;10.864;2023-04-01T02:50:28;39.53;36.20;43.58;;
66747;Laerm;53658;50.742;10.864;2023-04-01T02:52:53;39.91;36.45;50.92;;
66747;Laerm;53658;50.742;10.864;2023-04-01T02:55:19;39.53;36.56;42.65;;
66747;Laerm;53658;50.742;10.864;2023-04-01T02:57:45;39.45;36.69;42.22;;
66747;Laerm;53658;50.742;10.864;2023-04-01T03:00:12;39.40;36.56;43.49;;
66747;Laerm;53658;50.742;10.864;2023-04-01T03:02:38;39.69;36.69;46.87;;
66747;Laerm;53658;50.742;10.864;2023-04-01T03:05:05;39.42;36.45;42.71;;
66747;Laerm;53658;50.742;10.864;2023-04-01T03:07:31;39.60;36.20;42.30;;
66747;Laerm;53658;50.742;10.864;2023-04-01T03:09:57;39.59;36.77;43.19;;
66747;Laerm;53658;50.742;10.864;2023-04-01T03:12:23;39.45;35.36;47.54;;
66747;Laerm;53658;50.742;10.864;2023-04-01T03:14:50;39.49;36.45;45.60;;
66747;Laerm;53658;50.742;10.864;2023-04-01T03:17:16;39.54;32.93;53.53;;
66747;Laerm;53658;50.742;10.864;2023-04-01T03:19:42;39.35;35.94;45.83;;
66747;Laerm;53658;50.742;10.864;2023-04-01T03:22:12;39.20;35.04;51.47;;
66747;Laerm;53658;50.742;10.864;2023-04-01T03:24:38;39.16;35.94;44.49;;
66747;Laerm;53658;50.742;10.864;2023-04-01T03:27:03;39.29;36.20;45.01;;
66747;Laerm;53658;50.742;10.864;2023-04-01T03:29:29;39.43;36.20;49.40;;
66747;Laerm;53658;50.742;10.864;2023-04-01T03:31:55;39.33;36.20;43.94;;
66747;Laerm;53658;50.742;10.864;2023-04-01T03:34:24;39.28;35.36;42.69;;
66747;Laerm;53658;50.742;10.864;2023-04-01T03:36:51;39.39;36.20;44.42;;
66747;Laerm;53658;50.742;10.864;2023-04-01T03:39:17;39.52;35.94;46.93;;
66747;Laerm;53658;50.742;10.864;2023-04-01T03:41:47;39.81;36.45;53.53;;
66747;Laerm;53658;50.742;10.864;2023-04-01T03:44:13;39.50;35.94;45.23;;
66747;Laerm;53658;50.742;10.864;2023-04-01T03:46:39;39.58;35.59;49.00;;
66747;Laerm;53658;50.742;10.864;2023-04-01T03:49:09;39.33;36.20;42.35;;
66747;Laerm;53658;50.742;10.864;2023-04-01T03:51:41;39.43;36.20;45.83;;
66747;Laerm;53658;50.742;10.864;2023-04-01T03:54:08;39.46;36.45;43.86;;
66747;Laerm;53658;50.742;10.864;2023-04-01T03:56:34;39.24;35.94;50.53;;
66747;Laerm;53658;50.742;10.864;2023-04-01T03:59:05;39.12;35.04;44.76;;
66747;Laerm;53658;50.742;10.864;2023-04-01T04:01:31;39.08;35.94;44.07;;
66747;Laerm;53658;50.742;10.864;2023-04-01T04:03:57;39.65;36.34;58.00;;
66747;Laerm;53658;50.742;10.864;2023-04-01T04:06:25;39.27;35.36;46.66;;
66747;Laerm;53658;50.742;10.864;2023-04-01T04:08:51;39.24;35.36;44.19;;
66747;Laerm;53658;50.742;10.864;2023-04-01T04:11:18;39.37;34.69;44.87;;
66747;Laerm;53658;50.742;10.864;2023-04-01T04:13:45;40.26;35.36;59.14;;
66747;Laerm;53658;50.742;10.864;2023-04-01T04:16:13;39.24;35.66;45.60;;
66747;Laerm;53658;50.742;10.864;2023-04-01T04:18:44;39.04;35.04;51.87;;
66747;Laerm;53658;50.742;10.864;2023-04-01T04:21:14;43.44;35.04;77.85;;
66747;Laerm;53658;50.742;10.864;2023-04-01T04:23:42;38.82;35.36;42.22;;
66747;Laerm;53658;50.742;10.864;2023-04-01T04:26:11;38.81;35.04;44.87;;
66747;Laerm;53658;50.742;10.864;2023-04-01T04:28:38;39.31;34.69;60.60;;
66747;Laerm;53658;50.742;10.864;2023-04-01T04:31:05;40.07;35.66;66.04;;
66747;Laerm;53658;50.742;10.864;2023-04-01T04:33:34;51.51;35.94;87.47;;
66747;Laerm;53658;50.742;10.864;2023-04-01T04:36:01;40.02;35.66;47.76;;
66747;Laerm;53658;50.742;10.864;2023-04-01T04:38:28;39.73;35.04;61.00;;
66747;Laerm;53658;50.742;10.864;2023-04-01T04:40:54;39.20;34.31;42.59;;
66747;Laerm;53658;50.742;10.864;2023-04-01T04:43:20;39.08;34.31;49.12;;
66747;Laerm;53658;50.742;10.864;2023-04-01T04:45:46;39.20;33.90;42.41;;
66747;Laerm;53658;50.742;10.864;2023-04-01T04:48:15;39.70;35.36;44.62;;
66747;Laerm;53658;50.742;10.864;2023-04-01T04:50:49;39.93;36.45;42.65;;
66747;Laerm;53658;50.742;10.864;2023-04-01T04:53:18;39.97;35.04;42.53;;
66747;Laerm;53658;50.742;10.864;2023-04-01T04:55:49;39.86;36.20;42.82;;
66747;Laerm;53658;50.742;10.864;2023-04-01T04:58:41;39.94;32.93;46.91;;
66747;Laerm;53658;50.742;10.864;2023-04-01T05:01:12;39.93;35.66;43.77;;
66747;Laerm;53658;50.742;10.864;2023-04-01T05:03:40;39.94;36.20;42.47;;
66747;Laerm;53658;50.742;10.864;2023-04-01T05:06:08;40.03;36.20;44.43;;
66747;Laerm;53658;50.742;10.864;2023-04-01T05:08:34;39.97;35.94;44.90;;
66747;Laerm;53658;50.742;10.864;2023-04-01T05:11:02;39.93;35.66;45.07;;
66747;Laerm;53658;50.742;10.864;2023-04-01T05:13:29;39.98;35.94;44.15;;
66747;Laerm;53658;50.742;10.864;2023-04-01T05:15:55;42.18;28.67;69.74;;
66747;Laerm;53658;50.742;10.864;2023-04-01T05:18:21;43.31;32.93;62.66;;
66747;Laerm;53658;50.742;10.864;2023-04-01T05:20:53;40.42;35.04;59.39;;
66747;Laerm;53658;50.742;10.864;2023-04-01T05:23:20;39.95;35.66;59.23;;
66747;Laerm;53658;50.742;10.864;2023-04-01T05:25:48;39.92;35.04;56.49;;
66747;Laerm;53658;50.742;10.864;2023-04-01T05:28:16;39.88;35.36;52.26;;
66747;Laerm;53658;50.742;10.864;2023-04-01T05:30:44;39.95;34.31;54.42;;
66747;Laerm;53658;50.742;10.864;2023-04-01T05:33:21;39.81;35.94;51.84;;
66747;Laerm;53658;50.742;10.864;2023-04-01T05:35:47;39.87;34.31;45.07;;
66747;Laerm;53658;50.742;10.864;2023-04-01T05:38:12;39.66;35.36;43.24;;
66747;Laerm;53658;50.742;10.864;2023-04-01T05:40:38;39.56;33.90;45.69;;
66747;Laerm;53658;50.742;10.864;2023-04-01T05:43:05;39.27;35.04;42.71;;
66747;Laerm;53658;50.742;10.864;2023-04-01T05:45:31;39.23;35.01;42.82;;
66747;Laerm;53658;50.742;10.864;2023-04-01T05:48:15;38.27;33.44;41.38;;
66747;Laerm;53658;50.742;10.864;2023-04-01T05:50:42;38.41;34.31;44.03;;
66747;Laerm;53658;50.742;10.864;2023-04-01T05:53:10;38.94;34.31;44.27;;
66747;Laerm;53658;50.742;10.864;2023-04-01T05:55:37;39.16;35.36;44.31;;
66747;Laerm;53658;50.742;10.864;2023-04-01T05:58:04;39.43;35.94;48.46;;
66747;Laerm;53658;50.742;10.864;2023-04-01T06:00:30;39.67;36.69;48.43;;
66747;Laerm;53658;50.742;10.864;2023-04-01T06:02:59;39.59;36.91;45.42;;
66747;Laerm;53658;50.742;10.864;2023-04-01T06:05:29;39.69;36.91;45.78;;
66747;Laerm;53658;50.742;10.864;2023-04-01T06:08:04;39.61;36.91;46.45;;
66747;Laerm;53658;50.742;10.864;2023-04-01T06:10:48;39.54;36.69;42.53;;
66747;Laerm;53658;50.742;10.864;2023-04-01T06:13:37;39.77;36.45;46.07;;
66747;Laerm;53658;50.742;10.864;2023-04-01T06:19:05;39.56;36.69;44.76;;
66747;Laerm;53658;50.742;10.864;2023-04-01T06:30:07;39.52;36.20;44.54;;
66747;Laerm;53658;50.742;10.864;2023-04-01T06:33:28;39.45;36.69;50.36;;
66747;Laerm;53658;50.742;10.864;2023-04-01T06:41:09;39.36;36.45;45.30;;
66747;Laerm;53658;50.742;10.864;2023-04-01T06:50:26;40.73;35.66;72.08;;
66747;Laerm;53658;50.742;10.864;2023-04-01T06:53:21;39.20;35.66;44.76;;
66747;Laerm;53658;50.742;10.864;2023-04-01T06:56:15;39.19;35.94;46.40;;
66747;Laerm;53658;50.742;10.864;2023-04-01T06:59:20;39.55;34.34;52.60;;
66747;Laerm;53658;50.742;10.864;2023-04-01T07:04:43;51.14;35.66;87.25;;
66747;Laerm;53658;50.742;10.864;2023-04-01T07:07:43;38.82;34.69;53.54;;
66747;Laerm;53658;50.742;10.864;2023-04-01T07:10:46;39.14;34.69;44.54;;
66747;Laerm;53658;50.742;10.864;2023-04-01T07:13:54;39.33;35.36;44.69;;
66747;Laerm;53658;50.742;10.864;2023-04-01T07:19:33;38.90;34.31;42.22;;
66747;Laerm;53658;50.742;10.864;2023-04-01T07:22:21;39.00;34.69;47.40;;
66747;Laerm;53658;50.742;10.864;2023-04-01T07:25:16;38.99;34.69;43.09;;
66747;Laerm;53658;50.742;10.864;2023-04-01T07:27:47;38.94;33.44;46.93;;
66747;Laerm;53658;50.742;10.864;2023-04-01T07:30:21;38.93;34.69;45.48;;
66747;Laerm;53658;50.742;10.864;2023-04-01T07:43:43;39.79;33.44;53.82;;
66747;Laerm;53658;50.742;10.864;2023-04-01T07:54:13;39.71;35.36;44.90;;
66747;Laerm;53658;50.742;10.864;2023-04-01T07:56:52;39.64;35.94;42.16;;
66747;Laerm;53658;50.742;10.864;2023-04-01T08:05:25;38.77;34.69;48.26;;
66747;Laerm;53658;50.742;10.864;2023-04-01T08:08:32;38.67;34.69;42.88;;
66747;Laerm;53658;50.742;10.864;2023-04-01T08:11:44;38.52;33.90;41.48;;
66747;Laerm;53658;50.742;10.864;2023-04-01T08:17:46;38.99;35.36;42.76;;
66747;Laerm;53658;50.742;10.864;2023-04-01T08:22:57;39.18;34.69;43.24;;
66747;Laerm;53658;50.742;10.864;2023-04-01T08:25:33;39.17;35.04;44.15;;
66747;Laerm;53658;50.742;10.864;2023-04-01T08:28:08;38.90;35.94;51.13;;
66747;Laerm;53658;50.742;10.864;2023-04-01T08:33:26;39.23;36.20;46.69;;
66747;Laerm;53658;50.742;10.864;2023-04-01T08:56:14;40.43;36.20;69.95;;
66747;Laerm;53658;50.742;10.864;2023-04-01T09:28:28;39.61;37.52;42.03;;
66747;Laerm;53658;50.742;10.864;2023-04-01T09:34:31;39.71;37.12;45.42;;
66747;Laerm;53658;50.742;10.864;2023-04-01T09:39:39;39.81;37.32;43.63;;
66747;Laerm;53658;50.742;10.864;2023-04-01T09:45:01;39.73;37.32;42.59;;
66747;Laerm;53658;50.742;10.864;2023-04-01T09:47:50;39.64;36.45;41.53;;
66747;Laerm;53658;50.742;10.864;2023-04-01T09:56:11;39.67;37.12;41.82;;
66747;Laerm;53658;50.742;10.864;2023-04-01T09:59:13;39.59;36.91;42.22;;
66747;Laerm;53658;50.742;10.864;2023-04-01T10:16:08;40.07;37.32;47.77;;
66747;Laerm;53658;50.742;10.864;2023-04-01T10:35:39;39.79;37.32;45.86;;
66747;Laerm;53658;50.742;10.864;2023-04-01T10:38:22;39.63;37.32;41.61;;
66747;Laerm;53658;50.742;10.864;2023-04-01T11:23:13;39.84;37.52;42.53;;
66747;Laerm;53658;50.742;10.864;2023-04-01T11:31:45;40.13;36.91;52.32;;
66747;Laerm;53658;50.742;10.864;2023-04-01T11:34:37;40.29;37.32;53.13;;
66747;Laerm;53658;50.742;10.864;2023-04-01T11:46:15;39.57;36.91;42.16;;
66747;Laerm;53658;50.742;10.864;2023-04-01T12:05:41;39.92;37.88;43.49;;
66747;Laerm;53658;50.742;10.864;2023-04-01T12:16:53;40.05;37.52;43.04;;
66747;Laerm;53658;50.742;10.864;2023-04-01T12:19:26;39.95;37.88;41.75;;
66747;Laerm;53658;50.742;10.864;2023-04-01T12:22:33;39.93;37.70;41.82;;
66747;Laerm;53658;50.742;10.864;2023-04-01T12:27:55;39.75;37.32;42.09;;
66747;Laerm;53658;50.742;10.864;2023-04-01T12:55:41;39.58;37.32;41.61;;
66747;Laerm;53658;50.742;10.864;2023-04-01T13:04:25;39.59;37.52;41.61;;
66747;Laerm;53658;50.742;10.864;2023-04-01T13:07:10;39.55;37.12;41.30;;
66747;Laerm;53658;50.742;10.864;2023-04-01T13:15:45;39.61;37.52;41.22;;
66747;Laerm;53658;50.742;10.864;2023-04-01T13:18:39;39.58;36.69;41.30;;
66747;Laerm;53658;50.742;10.864;2023-04-01T13:22:23;39.67;37.32;41.53;;
66747;Laerm;53658;50.742;10.864;2023-04-01T13:24:39;39.63;37.32;42.09;;
66747;Laerm;53658;50.742;10.864;2023-04-01T13:29:57;39.59;37.12;41.96;;
66747;Laerm;53658;50.742;10.864;2023-04-01T13:35:34;39.58;37.12;41.30;;
66747;Laerm;53658;50.742;10.864;2023-04-01T13:38:13;39.57;36.77;41.53;;
66747;Laerm;53658;50.742;10.864;2023-04-01T13:43:40;39.59;36.91;41.89;;
66747;Laerm;53658;50.742;10.864;2023-04-01T14:03:28;39.89;37.70;42.59;;
66747;Laerm;53658;50.742;10.864;2023-04-01T14:06:38;39.96;37.88;41.88;;
66747;Laerm;53658;50.742;10.864;2023-04-01T14:35:09;39.71;37.12;41.68;;
66747;Laerm;53658;50.742;10.864;2023-04-01T14:48:27;39.70;37.52;42.53;;
66747;Laerm;53658;50.742;10.864;2023-04-01T14:51:03;39.68;36.91;41.75;;
66747;Laerm;53658;50.742;10.864;2023-04-01T14:53:41;39.71;37.12;41.96;;
66747;Laerm;53658;50.742;10.864;2023-04-01T14:56:11;39.71;37.32;41.61;;
66747;Laerm;53658;50.742;10.864;2023-04-01T14:58:47;39.72;36.69;41.75;;
66747;Laerm;53658;50.742;10.864;2023-04-01T15:01:41;39.73;37.32;41.94;;
66747;Laerm;53658;50.742;10.864;2023-04-01T15:07:06;39.77;37.32;42.82;;
66747;Laerm;53658;50.742;10.864;2023-04-01T15:12:17;41.66;36.69;71.56;;
66747;Laerm;53658;50.742;10.864;2023-04-01T15:15:03;39.94;36.69;47.61;;
66747;Laerm;53658;50.742;10.864;2023-04-01T15:18:38;40.20;36.45;63.24;;
66747;Laerm;53658;50.742;10.864;2023-04-01T15:31:52;39.25;35.66;45.33;;
66747;Laerm;53658;50.742;10.864;2023-04-01T15:34:34;54.70;35.36;91.40;;
66747;Laerm;53658;50.742;10.864;2023-04-01T15:39:40;39.19;35.94;44.11;;
66747;Laerm;53658;50.742;10.864;2023-04-01T15:50:35;38.97;35.66;44.39;;
66747;Laerm;53658;50.742;10.864;2023-04-01T16:02:13;39.04;35.04;45.17;;
66747;Laerm;53658;50.742;10.864;2023-04-01T16:13:46;38.54;34.31;41.61;;
66747;Laerm;53658;50.742;10.864;2023-04-01T16:27:35;38.59;34.69;42.29;;
66747;Laerm;53658;50.742;10.864;2023-04-01T16:38:09;41.10;36.91;44.87;;
66747;Laerm;53658;50.742;10.864;2023-04-01T16:40:57;41.09;35.94;59.16;;
66747;Laerm;53658;50.742;10.864;2023-04-01T16:43:45;40.57;36.45;59.64;;
66747;Laerm;53658;50.742;10.864;2023-04-01T16:46:26;40.17;36.20;42.65;;
66747;Laerm;53658;50.742;10.864;2023-04-01T16:59:53;39.48;35.36;42.47;;
66747;Laerm;53658;50.742;10.864;2023-04-01T17:02:28;39.32;35.36;42.16;;
66747;Laerm;53658;50.742;10.864;2023-04-01T17:05:05;39.16;35.04;41.96;;
66747;Laerm;53658;50.742;10.864;2023-04-01T17:18:04;39.48;34.69;46.10;;
66747;Laerm;53658;50.742;10.864;2023-04-01T17:21:00;39.54;35.36;45.39;;
66747;Laerm;53658;50.742;10.864;2023-04-01T17:23:43;39.50;35.04;49.71;;
66747;Laerm;53658;50.742;10.864;2023-04-01T17:31:35;38.76;34.31;49.25;;
66747;Laerm;53658;50.742;10.864;2023-04-01T17:37:16;38.71;35.04;43.14;;
66747;Laerm;53658;50.742;10.864;2023-04-01T17:39:53;38.91;35.04;44.80;;
66747;Laerm;53658;50.742;10.864;2023-04-01T17:45:21;38.77;35.66;45.45;;
66747;Laerm;53658;50.742;10.864;2023-04-01T17:49:00;38.80;35.66;43.24;;
66747;Laerm;53658;50.742;10.864;2023-04-01T17:51:17;38.87;34.31;42.29;;
66747;Laerm;53658;50.742;10.864;2023-04-01T17:59:39;38.83;35.36;45.99;;
66747;Laerm;53658;50.742;10.864;2023-04-01T18:02:32;38.78;35.04;43.19;;
66747;Laerm;53658;50.742;10.864;2023-04-01T18:13:53;38.74;35.04;46.02;;
66747;Laerm;53658;50.742;10.864;2023-04-01T18:16:50;38.74;35.04;47.16;;
66747;Laerm;53658;50.742;10.864;2023-04-01T18:19:58;38.68;35.04;44.87;;
66747;Laerm;53658;50.742;10.864;2023-04-01T18:27:47;38.48;34.69;48.57;;
66747;Laerm;53658;50.742;10.864;2023-04-01T18:30:25;38.65;34.31;44.76;;
66747;Laerm;53658;50.742;10.864;2023-04-01T18:38:33;38.60;34.31;44.90;;
66747;Laerm;53658;50.742;10.864;2023-04-01T18:41:20;38.63;34.31;42.88;;
66747;Laerm;53658;50.742;10.864;2023-04-01T18:44:30;38.80;34.31;42.93;;
66747;Laerm;53658;50.742;10.864;2023-04-01T18:52:41;38.79;34.69;43.24;;
66747;Laerm;53658;50.742;10.864;2023-04-01T18:55:37;38.84;33.90;56.69;;
66747;Laerm;53658;50.742;10.864;2023-04-01T19:01:07;38.85;34.69;52.59;;
66747;Laerm;53658;50.742;10.864;2023-04-01T19:03:48;38.66;33.90;43.34;;
66747;Laerm;53658;50.742;10.864;2023-04-01T19:06:41;38.73;34.31;46.35;;
66747;Laerm;53658;50.742;10.864;2023-04-01T19:09:44;38.61;34.31;51.29;;
66747;Laerm;53658;50.742;10.864;2023-04-01T19:15:11;39.13;35.36;50.98;;
66747;Laerm;53658;50.742;10.864;2023-04-01T19:24:02;38.85;35.04;43.29;;
66747;Laerm;53658;50.742;10.864;2023-04-01T19:34:59;38.90;34.69;42.03;;
66747;Laerm;53658;50.742;10.864;2023-04-01T19:37:45;38.79;33.90;46.45;;
66747;Laerm;53658;50.742;10.864;2023-04-01T19:46:02;38.62;32.93;41.89;;
66747;Laerm;53658;50.742;10.864;2023-04-01T20:01:59;38.81;33.90;41.96;;
66747;Laerm;53658;50.742;10.864;2023-04-01T20:04:34;38.79;33.44;45.94;;
66747;Laerm;53658;50.742;10.864;2023-04-01T20:07:24;38.81;34.31;47.59;;
66747;Laerm;53658;50.742;10.864;2023-04-01T20:15:03;38.74;35.04;42.29;;
66747;Laerm;53658;50.742;10.864;2023-04-01T20:17:38;38.76;34.31;41.46;;
66747;Laerm;53658;50.742;10.864;2023-04-01T20:28:04;38.41;32.93;46.18;;
66747;Laerm;53658;50.742;10.864;2023-04-01T20:34:02;38.41;32.93;45.57;;
66747;Laerm;53658;50.742;10.864;2023-04-01T20:36:45;46.69;33.44;82.94;;
66747;Laerm;53658;50.742;10.864;2023-04-01T20:42:29;39.06;32.35;43.09;;
66747;Laerm;53658;50.742;10.864;2023-04-01T20:53:46;39.31;34.69;45.59;;
66747;Laerm;53658;50.742;10.864;2023-04-01T20:59:36;40.30;34.69;43.24;;
66747;Laerm;53658;50.742;10.864;2023-04-01T21:08:06;40.04;36.20;42.93;;
66747;Laerm;53658;50.742;10.864;2023-04-01T21:10:41;40.02;35.94;45.66;;
66747;Laerm;53658;50.742;10.864;2023-04-01T21:13:25;39.82;35.04;45.36;;
66747;Laerm;53658;50.742;10.864;2023-04-01T21:24:51;39.96;33.44;51.17;;
66747;Laerm;53658;50.742;10.864;2023-04-01T21:27:48;39.86;35.36;43.49;;
66747;Laerm;53658;50.742;10.864;2023-04-01T21:38:48;39.73;35.36;42.41;;
66747;Laerm;53658;50.742;10.864;2023-04-01T21:50:23;39.21;33.44;43.72;;
66747;Laerm;53658;50.742;10.864;2023-04-01T21:53:26;39.30;34.31;42.41;;
66747;Laerm;53658;50.742;10.864;2023-04-01T22:01:59;39.52;32.93;41.96;;
66747;Laerm;53658;50.742;10.864;2023-04-01T22:07:19;39.51;35.66;41.96;;
66747;Laerm;53658;50.742;10.864;2023-04-01T22:12:48;38.64;34.31;41.75;;
66747;Laerm;53658;50.742;10.864;2023-04-01T22:15:52;38.51;33.90;41.53;;
66747;Laerm;53658;50.742;10.864;2023-04-01T22:18:31;38.46;33.44;41.22;;
66747;Laerm;53658;50.742;10.864;2023-04-01T22:34:51;38.39;32.35;54.64;;
66747;Laerm;53658;50.742;10.864;2023-04-01T22:37:47;38.16;32.93;42.22;;
66747;Laerm;53658;50.742;10.864;2023-04-01T22:40:21;38.06;32.35;41.46;;
66747;Laerm;53658;50.742;10.864;2023-04-01T22:43:57;38.37;32.93;41.53;;
66747;Laerm;53658;50.742;10.864;2023-04-01T22:45:58;38.47;33.44;44.11;;
66747;Laerm;53658;50.742;10.864;2023-04-01T22:48:42;38.55;32.93;41.61;;
66747;Laerm;53658;50.742;10.864;2023-04-01T22:51:17;38.25;32.35;49.81;;
66747;Laerm;53658;50.742;10.864;2023-04-01T22:54:04;38.11;32.93;53.66;;
66747;Laerm;53658;50.742;10.864;2023-04-01T22:56:45;37.96;32.35;43.63;;
66747;Laerm;53658;50.742;10.864;2023-04-01T23:01:57;37.94;31.68;40.80;;
66747;Laerm;53658;50.742;10.864;2023-04-01T23:04:33;41.19;30.89;74.39;;
66747;Laerm;53658;50.742;10.864;2023-04-01T23:07:24;37.91;32.35;44.31;;
66747;Laerm;53658;50.742;10.864;2023-04-01T23:09:57;37.99;33.44;41.96;;
66747;Laerm;53658;50.742;10.864;2023-04-01T23:12:26;37.92;29.92;41.46;;
66747;Laerm;53658;50.742;10.864;2023-04-01T23:14:57;38.02;32.93;41.75;;
66747;Laerm;53658;50.742;10.864;2023-04-01T23:26:12;38.18;32.35;41.75;;
66747;Laerm;53658;50.742;10.864;2023-04-01T23:30:52;38.08;31.68;43.39;;
66747;Laerm;53658;50.742;10.864;2023-04-01T23:35:54;38.97;32.93;67.23;;
66747;Laerm;53658;50.742;10.864;2023-04-01T23:38:24;38.20;32.93;41.68;;
66747;Laerm;53658;50.742;10.864;2023-04-01T23:40:53;38.24;32.35;44.27;;
66747;Laerm;53658;50.742;10.864;2023-04-01T23:43:32;47.21;33.90;83.03;;
66747;Laerm;53658;50.742;10.864;2023-04-01T23:46:02;39.93;31.68;71.38;;
66747;Laerm;53658;50.742;10.864;2023-04-01T23:48:43;38.49;32.35;62.06;;
66747;Laerm;53658;50.742;10.864;2023-04-01T23:51:37;38.22;32.93;47.96;;
66747;Laerm;53658;50.742;10.864;2023-04-01T23:54:18;49.10;26.91;85.73;;
66747;Laerm;53658;50.742;10.864;2023-04-01T23:56:48;38.14;32.93;56.35;;
66747;Laerm;53658;50.742;10.864;2023-04-01T23:59:19;38.03;32.93;57.43;;
